Time;durP1;ratioP1;P1;durP2;ratioP2;P2;SDS_P1;SDS_P2;PMS_P1;PMS_P2;Temp;Humidity;BMP_temperature;BMP_pressure;BME280_temperature;BME280_humidity;BME280_pressure;Samples;Min_cycle;Max_cycle;Signal;HPM_P1;HPM_P2
2022/10/08 00:01:17;;;;;;;19.57;11.35;;;;;;;;;;1706362;83;21069;-64
2022/10/08 00:03:45;;;;;;;21.10;12.68;;;;;;;;;;1703353;83;21596;-65
2022/10/08 00:06:18;;;;;;;20.77;11.38;;;;;;;;;;1711118;83;21065;-65
2022/10/08 00:08:49;;;;;;;17.27;10.80;;;;;;;;;;1744434;81;21045;-65
2022/10/08 00:11:18;;;;;;;21.12;10.48;;;;;;;;;;1746397;81;21021;-65
2022/10/08 00:13:46;;;;;;;18.40;10.03;;;;;;;;;;1734111;80;21052;-64
2022/10/08 00:16:17;;;;;;;18.73;10.18;;;;;;;;;;1732400;81;21648;-64
2022/10/08 00:18:44;;;;;;;15.10;9.38;;;;;;;;;;1738354;81;20978;-64
2022/10/08 00:21:13;;;;;;;17.67;8.93;;;;;;;;;;1730892;82;21237;-63
2022/10/08 00:23:40;;;;;;;15.65;8.53;;;;;;;;;;1743896;80;21100;-63
2022/10/08 00:26:06;;;;;;;14.55;8.88;;;;;;;;;;1734823;81;21555;-63
2022/10/08 00:28:34;;;;;;;15.18;7.85;;;;;;;;;;1684849;84;21074;-63
2022/10/08 00:31:07;;;;;;;12.50;7.58;;;;;;;;;;1685519;84;21042;-64
2022/10/08 00:33:35;;;;;;;12.75;7.83;;;;;;;;;;1727687;81;21033;-64
2022/10/08 00:36:02;;;;;;;12.33;7.78;;;;;;;;;;1739031;81;21060;-64
2022/10/08 00:38:28;;;;;;;12.93;7.45;;;;;;;;;;1672643;83;21146;-64
2022/10/08 00:40:55;;;;;;;11.95;6.53;;;;;;;;;;1691196;84;21394;-64
2022/10/08 00:43:36;;;;;;;12.20;6.87;;;;;;;;;;1679783;84;20986;-64
2022/10/08 00:46:02;;;;;;;11.08;6.50;;;;;;;;;;1642702;84;21038;-64
2022/10/08 00:48:29;;;;;;;10.40;6.45;;;;;;;;;;1675639;84;21027;-64
2022/10/08 00:50:55;;;;;;;12.55;6.20;;;;;;;;;;1684407;84;21056;-65
2022/10/08 00:53:21;;;;;;;10.08;6.00;;;;;;;;;;1737353;80;21033;-64
2022/10/08 00:55:48;;;;;;;12.73;6.47;;;;;;;;;;1736220;81;21064;-63
2022/10/08 00:58:19;;;;;;;9.85;5.53;;;;;;;;;;1755945;81;21470;-64
2022/10/08 01:03:35;;;;;;;9.50;5.08;;;;;;;;;;1738998;78;76559;-63
2022/10/08 01:06:04;;;;;;;8.63;5.03;;;;;;;;;;1722355;82;21038;-64
2022/10/08 01:08:32;;;;;;;8.70;4.78;;;;;;;;;;1723778;82;21092;-64
2022/10/08 01:11:12;;;;;;;7.53;5.08;;;;;;;;;;1718057;82;21052;-64
2022/10/08 01:13:48;;;;;;;9.05;4.37;;;;;;;;;;1713238;82;21525;-64
2022/10/08 01:16:17;;;;;;;7.33;4.47;;;;;;;;;;1727944;82;21052;-64
2022/10/08 01:18:48;;;;;;;8.43;4.50;;;;;;;;;;1731195;82;21072;-64
2022/10/08 01:21:26;;;;;;;7.87;4.60;;;;;;;;;;1717593;82;21035;-64
2022/10/08 01:24:03;;;;;;;9.45;5.03;;;;;;;;;;1720506;82;21051;-64
2022/10/08 01:26:35;;;;;;;9.88;4.75;;;;;;;;;;1696281;82;21017;-63
2022/10/08 01:29:07;;;;;;;9.60;4.85;;;;;;;;;;1687755;83;21579;-64
2022/10/08 01:31:35;;;;;;;9.63;4.92;;;;;;;;;;1668190;85;21081;-65
2022/10/08 01:34:09;;;;;;;8.80;4.35;;;;;;;;;;1664831;85;21798;-65
2022/10/08 01:36:38;;;;;;;6.42;4.25;;;;;;;;;;1718717;82;21039;-65
2022/10/08 01:39:05;;;;;;;9.23;4.25;;;;;;;;;;1718708;82;21040;-64
2022/10/08 01:41:32;;;;;;;7.80;4.53;;;;;;;;;;1719931;82;21056;-65
2022/10/08 01:44:02;;;;;;;18.15;4.85;;;;;;;;;;1721358;82;21029;-66
2022/10/08 01:46:28;;;;;;;8.23;4.33;;;;;;;;;;1721226;82;21028;-65
2022/10/08 01:48:56;;;;;;;7.87;4.22;;;;;;;;;;1716313;82;21527;-65
2022/10/08 01:51:23;;;;;;;6.67;4.40;;;;;;;;;;1717640;82;21078;-65
2022/10/08 01:53:50;;;;;;;6.47;4.10;;;;;;;;;;1720908;82;21060;-65
2022/10/08 01:56:17;;;;;;;7.12;4.08;;;;;;;;;;1712606;83;21017;-65
2022/10/08 01:58:53;;;;;;;8.80;3.80;;;;;;;;;;1717402;82;21596;-65
2022/10/08 02:01:22;;;;;;;8.05;4.20;;;;;;;;;;1718334;82;21584;-65
2022/10/08 02:06:36;;;;;;;7.03;4.03;;;;;;;;;;1762444;80;21080;-65
2022/10/08 02:09:02;;;;;;;5.70;3.92;;;;;;;;;;1753464;80;21033;-65
2022/10/08 02:11:29;;;;;;;6.45;3.83;;;;;;;;;;1761166;81;21065;-65
2022/10/08 02:13:55;;;;;;;7.00;3.75;;;;;;;;;;1759182;80;21040;-65
2022/10/08 02:16:28;;;;;;;7.58;3.90;;;;;;;;;;1756010;80;20994;-65
2022/10/08 02:19:00;;;;;;;6.17;3.50;;;;;;;;;;1756057;80;21037;-65
2022/10/08 02:21:26;;;;;;;6.50;4.00;;;;;;;;;;1757539;80;20993;-65
2022/10/08 02:23:54;;;;;;;9.55;4.42;;;;;;;;;;1759629;80;21653;-65
2022/10/08 02:26:21;;;;;;;7.42;4.03;;;;;;;;;;1761650;80;21056;-65
2022/10/08 02:28:58;;;;;;;7.22;4.00;;;;;;;;;;1760726;80;21038;-64
2022/10/08 02:31:25;;;;;;;7.12;3.90;;;;;;;;;;1753790;80;21098;-65
2022/10/08 02:33:56;;;;;;;7.50;4.08;;;;;;;;;;1755534;80;21068;-65
2022/10/08 02:36:24;;;;;;;7.22;4.03;;;;;;;;;;1752100;80;21056;-65
2022/10/08 02:38:52;;;;;;;5.83;3.62;;;;;;;;;;1759917;81;21545;-65
2022/10/08 02:41:20;;;;;;;10.68;4.08;;;;;;;;;;1755810;81;21494;-65
2022/10/08 02:43:47;;;;;;;8.15;3.95;;;;;;;;;;1766170;80;21076;-65
2022/10/08 02:46:15;;;;;;;6.92;3.45;;;;;;;;;;1755889;80;21005;-65
2022/10/08 02:48:53;;;;;;;10.23;4.42;;;;;;;;;;1756652;80;21019;-64
2022/10/08 02:51:19;;;;;;;7.75;3.83;;;;;;;;;;1756155;80;21037;-64
2022/10/08 02:53:48;;;;;;;10.28;3.85;;;;;;;;;;1756156;80;21045;-64
2022/10/08 02:56:16;;;;;;;7.97;3.60;;;;;;;;;;1761445;80;21061;-63
2022/10/08 02:58:42;;;;;;;9.30;3.60;;;;;;;;;;1754732;80;20991;-64
2022/10/08 03:01:22;;;;;;;7.62;3.83;;;;;;;;;;1754239;80;21013;-64
2022/10/08 03:03:48;;;;;;;10.28;4.40;;;;;;;;;;1754462;80;21094;-64
2022/10/08 03:06:14;;;;;;;9.70;3.90;;;;;;;;;;1763706;80;21590;-65
2022/10/08 03:08:42;;;;;;;8.50;4.08;;;;;;;;;;1753712;80;21046;-64
2022/10/08 03:11:08;;;;;;;5.80;3.25;;;;;;;;;;1757023;80;21497;-64
2022/10/08 03:13:38;;;;;;;8.73;3.52;;;;;;;;;;1755047;80;21072;-64
2022/10/08 03:16:06;;;;;;;10.32;4.45;;;;;;;;;;1752642;80;21009;-65
2022/10/08 03:18:32;;;;;;;7.72;3.87;;;;;;;;;;1757636;80;21071;-64
2022/10/08 03:20:58;;;;;;;6.87;3.70;;;;;;;;;;1745856;80;20987;-64
2022/10/08 03:23:24;;;;;;;13.32;4.10;;;;;;;;;;1753300;80;21053;-64
2022/10/08 03:25:50;;;;;;;7.67;3.75;;;;;;;;;;1750655;80;21158;-63
2022/10/08 03:28:17;;;;;;;6.00;3.60;;;;;;;;;;1758733;80;21549;-64
2022/10/08 03:30:43;;;;;;;8.13;3.70;;;;;;;;;;1758529;80;21110;-63
2022/10/08 03:33:09;;;;;;;9.40;4.00;;;;;;;;;;1757752;80;20994;-64
2022/10/08 03:35:36;;;;;;;7.40;3.95;;;;;;;;;;1756141;80;21021;-64
2022/10/08 03:38:02;;;;;;;7.17;3.80;;;;;;;;;;1761192;80;21085;-64
2022/10/08 03:40:28;;;;;;;6.15;3.75;;;;;;;;;;1759833;80;20995;-64
2022/10/08 03:42:55;;;;;;;8.53;4.70;;;;;;;;;;1757427;80;21010;-64
2022/10/08 03:45:22;;;;;;;7.50;4.10;;;;;;;;;;1766785;80;22075;-64
2022/10/08 03:47:51;;;;;;;9.85;4.15;;;;;;;;;;1761819;80;21021;-64
2022/10/08 03:50:18;;;;;;;7.60;4.00;;;;;;;;;;1755098;80;21544;-64
2022/10/08 03:52:45;;;;;;;10.43;4.35;;;;;;;;;;1743476;80;21061;-64
2022/10/08 03:55:11;;;;;;;8.60;4.60;;;;;;;;;;1749849;80;21861;-64
2022/10/08 03:57:38;;;;;;;9.85;4.67;;;;;;;;;;1752888;80;21061;-64
2022/10/08 04:00:04;;;;;;;8.73;4.87;;;;;;;;;;1758862;80;21041;-64
2022/10/08 04:02:35;;;;;;;9.80;4.95;;;;;;;;;;1749283;80;21523;-64
2022/10/08 04:04:59;;;;;;;8.50;4.67;;;;;;;;;;1749700;80;21556;-64
2022/10/08 04:07:26;;;;;;;10.18;4.70;;;;;;;;;;1760284;80;21064;-64
2022/10/08 04:09:52;;;;;;;9.65;4.78;;;;;;;;;;1755681;80;21094;-64
2022/10/08 04:12:18;;;;;;;8.95;4.90;;;;;;;;;;1748260;81;20985;-64
2022/10/08 04:14:44;;;;;;;10.40;5.55;;;;;;;;;;1761146;81;21076;-63
2022/10/08 04:17:10;;;;;;;9.10;5.25;;;;;;;;;;1753622;80;21048;-64
2022/10/08 04:19:37;;;;;;;7.05;5.12;;;;;;;;;;1758933;80;21041;-64
2022/10/08 04:22:03;;;;;;;8.75;4.75;;;;;;;;;;1758528;80;21084;-64
2022/10/08 04:24:29;;;;;;;9.78;5.42;;;;;;;;;;1769669;80;21233;-65
2022/10/08 04:26:56;;;;;;;10.18;5.12;;;;;;;;;;1757550;81;21014;-65
2022/10/08 04:29:22;;;;;;;11.65;5.55;;;;;;;;;;1749081;80;21013;-65
2022/10/08 04:31:49;;;;;;;8.03;5.00;;;;;;;;;;1754287;80;21005;-64
2022/10/08 04:34:15;;;;;;;10.53;5.03;;;;;;;;;;1762139;80;21533;-65
2022/10/08 04:36:41;;;;;;;13.25;5.40;;;;;;;;;;1756411;80;21076;-65
2022/10/08 04:39:08;;;;;;;12.05;6.10;;;;;;;;;;1760311;80;21025;-65
2022/10/08 04:44:31;;;;;;;11.68;5.85;;;;;;;;;;1805757;79;23225;-64
2022/10/08 04:46:59;;;;;;;11.90;5.87;;;;;;;;;;1770292;80;21468;-65
2022/10/08 04:49:27;;;;;;;13.80;6.25;;;;;;;;;;1773538;79;21012;-64
2022/10/08 04:51:53;;;;;;;13.85;6.40;;;;;;;;;;1773860;80;22326;-64
2022/10/08 04:54:19;;;;;;;9.73;6.30;;;;;;;;;;1770742;80;21081;-64
2022/10/08 04:56:45;;;;;;;10.00;5.75;;;;;;;;;;1776610;80;21015;-68
2022/10/08 04:59:11;;;;;;;11.05;5.33;;;;;;;;;;1772987;80;21026;-65
2022/10/08 05:01:37;;;;;;;12.85;6.25;;;;;;;;;;1774972;81;21038;-65
2022/10/08 05:04:05;;;;;;;11.78;5.70;;;;;;;;;;1739913;80;21053;-64
2022/10/08 05:06:31;;;;;;;9.05;5.30;;;;;;;;;;1736581;82;21096;-64
2022/10/08 05:08:58;;;;;;;11.25;5.47;;;;;;;;;;1660063;86;21033;-64
2022/10/08 05:11:25;;;;;;;8.85;4.97;;;;;;;;;;1691903;84;21531;-64
2022/10/08 05:13:53;;;;;;;10.32;4.95;;;;;;;;;;1685439;85;21096;-64
2022/10/08 05:16:19;;;;;;;9.50;5.08;;;;;;;;;;1682329;83;21068;-64
2022/10/08 05:18:46;;;;;;;14.03;5.62;;;;;;;;;;1682733;83;21068;-63
2022/10/08 05:21:15;;;;;;;9.05;5.35;;;;;;;;;;1684343;85;21027;-64
2022/10/08 05:23:42;;;;;;;9.28;4.72;;;;;;;;;;1667660;86;21069;-65
2022/10/08 05:26:18;;;;;;;10.65;5.37;;;;;;;;;;1698912;84;21067;-64
2022/10/08 05:28:45;;;;;;;7.22;4.45;;;;;;;;;;1671189;84;21035;-65
2022/10/08 05:31:15;;;;;;;10.98;4.62;;;;;;;;;;1685534;85;21076;-66
2022/10/08 05:33:42;;;;;;;10.35;4.95;;;;;;;;;;1678136;83;21039;-65
2022/10/08 05:36:11;;;;;;;6.25;4.20;;;;;;;;;;1683226;85;21053;-66
2022/10/08 05:38:38;;;;;;;8.28;4.40;;;;;;;;;;1684717;85;21127;-66
2022/10/08 05:41:09;;;;;;;8.98;4.53;;;;;;;;;;1682442;85;21048;-66
2022/10/08 05:43:35;;;;;;;9.48;4.45;;;;;;;;;;1666007;85;21069;-64
2022/10/08 05:46:02;;;;;;;7.17;4.53;;;;;;;;;;1712284;82;21044;-65
2022/10/08 05:48:29;;;;;;;11.08;4.25;;;;;;;;;;1711764;82;21015;-65
2022/10/08 05:50:56;;;;;;;6.90;4.00;;;;;;;;;;1714712;83;21007;-66
2022/10/08 05:53:22;;;;;;;7.17;3.77;;;;;;;;;;1713733;82;21011;-64
2022/10/08 05:55:51;;;;;;;8.65;4.10;;;;;;;;;;1708793;83;21040;-64
2022/10/08 05:58:17;;;;;;;8.15;4.30;;;;;;;;;;1708195;82;22088;-64
2022/10/08 06:00:43;;;;;;;8.15;4.00;;;;;;;;;;1713321;82;21028;-64
2022/10/08 06:03:09;;;;;;;6.62;3.45;;;;;;;;;;1708174;82;21122;-68
2022/10/08 06:05:35;;;;;;;7.28;3.50;;;;;;;;;;1710284;82;22094;-66
2022/10/08 06:08:02;;;;;;;7.28;3.58;;;;;;;;;;1709741;83;21077;-65
2022/10/08 06:10:30;;;;;;;7.58;3.62;;;;;;;;;;1710544;82;21111;-63
2022/10/08 06:12:57;;;;;;;7.85;3.77;;;;;;;;;;1716112;82;21016;-64
2022/10/08 06:15:23;;;;;;;7.65;3.95;;;;;;;;;;1713103;83;21036;-64
2022/10/08 06:17:49;;;;;;;10.72;4.12;;;;;;;;;;1713264;82;21126;-64
2022/10/08 06:20:16;;;;;;;12.53;4.45;;;;;;;;;;1709384;82;21018;-63
2022/10/08 06:22:42;;;;;;;9.20;3.52;;;;;;;;;;1709577;83;21019;-64
2022/10/08 06:25:08;;;;;;;8.15;4.00;;;;;;;;;;1711786;83;20989;-63
2022/10/08 06:27:34;;;;;;;7.62;3.65;;;;;;;;;;1714023;83;21094;-64
2022/10/08 06:30:00;;;;;;;6.17;2.95;;;;;;;;;;1708863;82;22094;-64
2022/10/08 06:32:27;;;;;;;7.20;3.62;;;;;;;;;;1713111;82;21069;-64
2022/10/08 06:34:53;;;;;;;6.22;3.22;;;;;;;;;;1719926;82;21040;-65
2022/10/08 06:37:19;;;;;;;6.60;3.12;;;;;;;;;;1705771;82;21532;-65
2022/10/08 06:39:45;;;;;;;8.05;3.45;;;;;;;;;;1711153;82;21084;-65
2022/10/08 06:42:11;;;;;;;7.53;3.47;;;;;;;;;;1714964;82;21038;-65
2022/10/08 06:44:38;;;;;;;9.88;3.90;;;;;;;;;;1728758;82;21084;-65
2022/10/08 06:47:04;;;;;;;5.87;3.45;;;;;;;;;;1714709;82;21197;-65
2022/10/08 06:49:31;;;;;;;7.15;3.35;;;;;;;;;;1731465;82;21077;-65
2022/10/08 06:51:57;;;;;;;6.55;2.98;;;;;;;;;;1718901;82;21075;-65
2022/10/08 06:54:26;;;;;;;6.85;3.10;;;;;;;;;;1723197;82;21033;-65
2022/10/08 06:56:54;;;;;;;10.10;5.15;;;;;;;;;;1717224;82;21029;-63
2022/10/08 06:59:21;;;;;;;14.98;4.42;;;;;;;;;;1709436;83;20970;-65
2022/10/08 07:01:47;;;;;;;6.47;3.27;;;;;;;;;;1722912;82;21009;-65
2022/10/08 07:04:13;;;;;;;4.90;2.98;;;;;;;;;;1718058;82;21060;-65
2022/10/08 07:06:40;;;;;;;6.22;2.62;;;;;;;;;;1715846;82;21025;-65
2022/10/08 07:09:09;;;;;;;6.70;2.92;;;;;;;;;;1715257;83;21072;-65
2022/10/08 07:11:35;;;;;;;5.53;2.30;;;;;;;;;;1716399;82;21037;-65
2022/10/08 07:14:01;;;;;;;6.15;2.35;;;;;;;;;;1718750;82;21513;-65
2022/10/08 07:16:29;;;;;;;5.10;2.70;;;;;;;;;;1710253;82;21057;-64
2022/10/08 07:18:57;;;;;;;6.70;2.62;;;;;;;;;;1709653;82;21615;-64
2022/10/08 07:21:23;;;;;;;6.25;2.50;;;;;;;;;;1717925;82;21010;-64
2022/10/08 07:23:49;;;;;;;3.92;2.30;;;;;;;;;;1715346;83;21048;-65
2022/10/08 07:26:17;;;;;;;4.87;2.37;;;;;;;;;;1711410;83;21443;-65
2022/10/08 07:28:48;;;;;;;6.53;2.52;;;;;;;;;;1714464;83;21580;-65
2022/10/08 07:31:15;;;;;;;3.52;2.45;;;;;;;;;;1715307;83;21003;-65
2022/10/08 07:33:42;;;;;;;6.90;2.50;;;;;;;;;;1719290;82;21013;-65
2022/10/08 07:36:10;;;;;;;5.22;2.50;;;;;;;;;;1717992;82;21020;-65
2022/10/08 07:38:37;;;;;;;7.42;2.62;;;;;;;;;;1718437;83;21088;-66
2022/10/08 07:41:03;;;;;;;4.72;2.33;;;;;;;;;;1717435;83;21435;-64
2022/10/08 07:43:30;;;;;;;5.47;2.50;;;;;;;;;;1714842;81;21018;-64
2022/10/08 07:45:56;;;;;;;4.08;2.40;;;;;;;;;;1718105;83;20989;-65
2022/10/08 07:48:22;;;;;;;7.00;2.45;;;;;;;;;;1721776;83;21040;-65
2022/10/08 07:50:49;;;;;;;4.35;2.35;;;;;;;;;;1697819;84;21536;-65
2022/10/08 07:53:15;;;;;;;7.90;2.60;;;;;;;;;;1700900;83;21085;-64
2022/10/08 07:55:42;;;;;;;5.25;2.60;;;;;;;;;;1714832;83;21001;-64
2022/10/08 07:58:08;;;;;;;6.28;2.45;;;;;;;;;;1685774;83;21095;-64
2022/10/08 08:00:34;;;;;;;7.97;2.50;;;;;;;;;;1661968;86;22368;-65
2022/10/08 08:03:00;;;;;;;5.12;2.60;;;;;;;;;;1698905;82;21112;-65
2022/10/08 08:05:26;;;;;;;7.47;2.30;;;;;;;;;;1722478;81;20989;-64
2022/10/08 08:07:52;;;;;;;4.62;2.65;;;;;;;;;;1716188;83;21505;-65
2022/10/08 08:10:18;;;;;;;3.72;2.45;;;;;;;;;;1725215;82;21263;-65
2022/10/08 08:12:44;;;;;;;3.65;2.33;;;;;;;;;;1722254;82;21038;-65
2022/10/08 08:15:10;;;;;;;5.47;2.30;;;;;;;;;;1698712;84;21041;-64
2022/10/08 08:17:38;;;;;;;7.62;2.60;;;;;;;;;;1672848;85;21071;-65
2022/10/08 08:20:04;;;;;;;4.50;2.20;;;;;;;;;;1672604;84;21035;-64
2022/10/08 08:22:30;;;;;;;4.87;2.80;;;;;;;;;;1673837;84;21496;-72
2022/10/08 08:24:57;;;;;;;5.87;2.60;;;;;;;;;;1670823;84;21072;-71
2022/10/08 08:27:23;;;;;;;8.55;2.15;;;;;;;;;;1727486;82;20990;-71
2022/10/08 08:29:49;;;;;;;7.70;5.33;;;;;;;;;;1701871;84;21632;-71
2022/10/08 08:32:15;;;;;;;8.10;2.87;;;;;;;;;;1679336;84;21064;-71
2022/10/08 08:34:45;;;;;;;6.10;2.70;;;;;;;;;;1676047;84;21008;-71
2022/10/08 08:37:12;;;;;;;4.42;2.87;;;;;;;;;;1669985;85;21041;-71
2022/10/08 08:39:39;;;;;;;5.15;2.20;;;;;;;;;;1678143;85;21529;-71
2022/10/08 08:42:13;;;;;;;12.33;2.42;;;;;;;;;;1669258;85;21049;-71
2022/10/08 08:44:41;;;;;;;6.33;2.30;;;;;;;;;;1686691;83;21120;-71
2022/10/08 08:47:15;;;;;;;5.10;2.22;;;;;;;;;;1685206;85;21051;-71
2022/10/08 08:49:42;;;;;;;6.67;2.25;;;;;;;;;;1690490;83;21092;-70
2022/10/08 08:52:11;;;;;;;5.95;2.30;;;;;;;;;;1688079;84;21116;-71
2022/10/08 08:54:37;;;;;;;4.95;2.25;;;;;;;;;;1691028;84;21542;-71
2022/10/08 08:57:05;;;;;;;3.70;2.12;;;;;;;;;;1686815;84;21069;-71
2022/10/08 08:59:32;;;;;;;3.35;2.30;;;;;;;;;;1671776;84;21530;-71
2022/10/08 09:01:59;;;;;;;3.95;1.77;;;;;;;;;;1688715;84;21649;-72
2022/10/08 09:04:26;;;;;;;4.72;2.12;;;;;;;;;;1691129;84;21017;-72
2022/10/08 09:06:53;;;;;;;3.30;2.30;;;;;;;;;;1688488;83;21348;-71
2022/10/08 09:09:30;;;;;;;3.62;1.80;;;;;;;;;;1678314;84;21037;-71
2022/10/08 09:11:58;;;;;;;3.52;2.20;;;;;;;;;;1688924;84;21120;-72
2022/10/08 09:14:28;;;;;;;5.12;2.10;;;;;;;;;;1691196;84;21089;-71
2022/10/08 09:16:55;;;;;;;3.75;2.05;;;;;;;;;;1728533;82;21616;-71
2022/10/08 09:19:21;;;;;;;7.22;2.33;;;;;;;;;;1728600;82;21097;-71
2022/10/08 09:21:47;;;;;;;4.30;2.00;;;;;;;;;;1724178;81;20969;-70
2022/10/08 09:24:13;;;;;;;5.08;2.05;;;;;;;;;;1732480;82;21023;-70
2022/10/08 09:26:39;;;;;;;3.12;1.80;;;;;;;;;;1728774;82;21034;-71
2022/10/08 09:29:06;;;;;;;4.45;1.90;;;;;;;;;;1726646;82;20990;-70
2022/10/08 09:31:40;;;;;;;4.05;1.98;;;;;;;;;;1729533;82;21486;-71
2022/10/08 09:34:08;;;;;;;4.03;2.10;;;;;;;;;;1728663;82;21001;-71
2022/10/08 09:36:38;;;;;;;4.55;2.00;;;;;;;;;;1731348;81;21061;-71
2022/10/08 09:39:06;;;;;;;5.95;2.10;;;;;;;;;;1728408;82;21839;-71
2022/10/08 09:41:33;;;;;;;4.42;2.30;;;;;;;;;;1728177;82;20995;-71
2022/10/08 09:44:03;;;;;;;4.72;2.17;;;;;;;;;;1727284;82;22128;-72
2022/10/08 09:46:30;;;;;;;7.83;2.10;;;;;;;;;;1720639;81;21051;-72
2022/10/08 09:49:16;;;;;;;5.22;2.25;;;;;;;;;;1723722;83;21041;-73
2022/10/08 09:51:43;;;;;;;5.08;2.10;;;;;;;;;;1722699;83;21051;-73
2022/10/08 09:54:09;;;;;;;8.25;2.58;;;;;;;;;;1700775;84;21108;-72
2022/10/08 09:56:36;;;;;;;4.78;2.17;;;;;;;;;;1723658;83;21045;-72
2022/10/08 09:59:03;;;;;;;8.18;2.10;;;;;;;;;;1698413;84;21009;-72
2022/10/08 10:01:30;;;;;;;8.75;2.47;;;;;;;;;;1721808;82;21104;-72
2022/10/08 10:03:57;;;;;;;4.25;1.90;;;;;;;;;;1699567;84;21026;-71
2022/10/08 10:06:33;;;;;;;5.47;2.30;;;;;;;;;;1722527;83;21546;-71
2022/10/08 10:09:01;;;;;;;3.47;1.92;;;;;;;;;;1698946;84;21006;-72
2022/10/08 10:11:29;;;;;;;31.40;4.22;;;;;;;;;;1718812;83;21034;-72
2022/10/08 10:13:56;;;;;;;3.47;1.90;;;;;;;;;;1699642;84;21039;-72
2022/10/08 10:16:28;;;;;;;7.50;2.47;;;;;;;;;;1719164;81;21031;-71
2022/10/08 10:18:56;;;;;;;5.85;2.52;;;;;;;;;;1722053;82;21077;-71
2022/10/08 10:21:24;;;;;;;5.80;2.27;;;;;;;;;;1720980;83;21005;-71
2022/10/08 10:23:52;;;;;;;3.60;2.33;;;;;;;;;;1720269;83;21034;-71
2022/10/08 10:26:30;;;;;;;4.17;2.42;;;;;;;;;;1721237;82;21057;-71
2022/10/08 10:28:58;;;;;;;4.22;2.27;;;;;;;;;;1705070;84;20998;-70
2022/10/08 10:31:31;;;;;;;4.80;2.10;;;;;;;;;;1727231;81;21007;-71
2022/10/08 10:34:00;;;;;;;3.55;2.20;;;;;;;;;;1729045;82;21048;-71
2022/10/08 10:36:28;;;;;;;5.12;2.67;;;;;;;;;;1723437;83;21094;-71
2022/10/08 10:38:55;;;;;;;4.97;2.33;;;;;;;;;;1700081;84;21533;-71
2022/10/08 10:41:25;;;;;;;6.28;2.52;;;;;;;;;;1722765;83;20963;-71
2022/10/08 10:43:59;;;;;;;4.25;2.00;;;;;;;;;;1720737;83;21182;-81
2022/10/08 10:46:45;;;;;;;4.78;2.17;;;;;;;;;;1696029;84;21578;-82
2022/10/08 10:49:15;;;;;;;3.37;1.80;;;;;;;;;;1721863;81;21046;-81
2022/10/08 10:51:46;;;;;;;5.90;2.22;;;;;;;;;;1722242;83;21593;-81
2022/10/08 10:54:31;;;;;;;4.35;2.30;;;;;;;;;;1722243;82;21082;-81
2022/10/08 10:56:59;;;;;;;2.98;2.00;;;;;;;;;;1727566;83;21841;-81
2022/10/08 10:59:36;;;;;;;9.85;2.02;;;;;;;;;;1730198;83;21062;-81
2022/10/08 11:02:11;;;;;;;6.08;1.82;;;;;;;;;;1728587;83;21159;-82
2022/10/08 11:04:39;;;;;;;4.37;2.30;;;;;;;;;;1726085;81;21052;-82
2022/10/08 11:07:06;;;;;;;3.70;1.90;;;;;;;;;;1717921;81;21053;-81
2022/10/08 11:09:49;;;;;;;5.22;2.30;;;;;;;;;;1721709;82;21031;-82
2022/10/08 11:12:28;;;;;;;3.45;1.95;;;;;;;;;;1723275;82;21534;-81
2022/10/08 11:15:09;;;;;;;7.42;2.20;;;;;;;;;;1726213;82;20981;-81
2022/10/08 11:17:37;;;;;;;6.10;2.20;;;;;;;;;;1663936;83;21048;-82
2022/10/08 11:20:11;;;;;;;4.80;2.22;;;;;;;;;;1693243;83;21321;-81
2022/10/08 11:22:39;;;;;;;4.42;2.45;;;;;;;;;;1692886;83;21042;-81
2022/10/08 11:25:09;;;;;;;4.83;2.22;;;;;;;;;;1734278;82;21544;-80
2022/10/08 11:27:49;;;;;;;7.65;2.98;;;;;;;;;;1728596;82;21074;-81
2022/10/08 11:30:17;;;;;;;3.85;2.45;;;;;;;;;;1669921;82;21091;-81
2022/10/08 11:32:44;;;;;;;6.35;3.00;;;;;;;;;;1732059;81;21302;-82
2022/10/08 11:35:12;;;;;;;5.92;2.80;;;;;;;;;;1688512;83;21051;-81
2022/10/08 11:37:40;;;;;;;8.00;3.47;;;;;;;;;;1733931;82;21074;-81
2022/10/08 11:40:17;;;;;;;7.65;4.85;;;;;;;;;;1730017;82;21059;-81
2022/10/08 11:42:52;;;;;;;9.03;5.35;;;;;;;;;;1734189;82;21072;-80
2022/10/08 11:45:25;;;;;;;7.62;3.05;;;;;;;;;;1734269;82;21041;-80
2022/10/08 11:47:53;;;;;;;6.65;2.98;;;;;;;;;;1689935;83;21065;-80
2022/10/08 11:50:23;;;;;;;7.03;3.35;;;;;;;;;;1734926;82;21034;-80
2022/10/08 11:52:49;;;;;;;8.35;3.25;;;;;;;;;;1728955;82;21008;-80
2022/10/08 11:55:21;;;;;;;6.28;3.17;;;;;;;;;;1730780;82;21038;-81
2022/10/08 11:57:54;;;;;;;6.05;4.15;;;;;;;;;;1730358;82;21024;-84
2022/10/08 12:00:32;;;;;;;7.05;4.45;;;;;;;;;;1731882;81;21103;-82
2022/10/08 12:02:58;;;;;;;8.83;4.10;;;;;;;;;;1733396;81;21084;-81
2022/10/08 12:05:26;;;;;;;4.70;3.40;;;;;;;;;;1730963;82;21195;-81
2022/10/08 12:07:56;;;;;;;6.03;3.87;;;;;;;;;;1735392;82;21048;-82
2022/10/08 12:10:28;;;;;;;10.50;4.05;;;;;;;;;;1733838;82;21040;-81
2022/10/08 12:13:00;;;;;;;13.18;4.65;;;;;;;;;;1730999;82;20969;-82
2022/10/08 12:15:26;;;;;;;7.90;4.75;;;;;;;;;;1729139;81;21019;-81
2022/10/08 12:17:54;;;;;;;8.70;4.60;;;;;;;;;;1730148;81;21050;-81
2022/10/08 12:20:33;;;;;;;9.65;4.72;;;;;;;;;;1730432;82;21544;-81
2022/10/08 12:23:01;;;;;;;13.05;4.67;;;;;;;;;;1715643;83;21027;-79
2022/10/08 12:25:28;;;;;;;11.70;5.25;;;;;;;;;;1720235;83;21041;-81
2022/10/08 12:27:56;;;;;;;9.73;5.33;;;;;;;;;;1724162;83;21518;-81
2022/10/08 12:30:22;;;;;;;8.73;4.80;;;;;;;;;;1721908;83;21569;-80
2022/10/08 12:32:51;;;;;;;7.33;4.15;;;;;;;;;;1679477;84;21066;-79
2022/10/08 12:35:22;;;;;;;12.05;4.85;;;;;;;;;;1727846;82;21039;-79
2022/10/08 12:37:50;;;;;;;9.78;5.75;;;;;;;;;;1735127;82;21060;-81
2022/10/08 12:40:35;;;;;;;15.28;4.60;;;;;;;;;;1731882;82;21065;-82
2022/10/08 12:43:09;;;;;;;20.37;5.62;;;;;;;;;;1733684;82;21090;-83
2022/10/08 12:45:37;;;;;;;7.58;3.62;;;;;;;;;;1725425;81;22421;-82
2022/10/08 12:48:13;;;;;;;9.65;4.65;;;;;;;;;;1721086;82;21820;-82
2022/10/08 12:50:50;;;;;;;7.75;3.75;;;;;;;;;;1721607;82;21591;-82
2022/10/08 12:53:16;;;;;;;12.33;3.65;;;;;;;;;;1722122;82;20989;-82
2022/10/08 12:55:45;;;;;;;11.12;6.10;;;;;;;;;;1721735;82;21031;-82
2022/10/08 12:58:15;;;;;;;22.32;12.93;;;;;;;;;;1721233;82;20988;-83
2022/10/08 13:00:42;;;;;;;14.55;5.03;;;;;;;;;;1719660;82;21007;-82
2022/10/08 13:03:13;;;;;;;10.15;3.80;;;;;;;;;;1720472;82;21052;-82
2022/10/08 13:05:39;;;;;;;13.22;4.25;;;;;;;;;;1713287;82;20949;-81
2022/10/08 13:08:25;;;;;;;19.92;4.12;;;;;;;;;;1705592;82;21023;-82
2022/10/08 13:10:52;;;;;;;8.68;3.33;;;;;;;;;;1705811;83;21603;-81
2022/10/08 13:13:35;;;;;;;6.55;3.45;;;;;;;;;;1699886;83;20985;-80
2022/10/08 13:16:01;;;;;;;4.85;3.25;;;;;;;;;;1703659;83;21047;-81
2022/10/08 13:18:28;;;;;;;21.17;6.28;;;;;;;;;;1701600;83;21063;-81
2022/10/08 13:20:55;;;;;;;10.48;4.90;;;;;;;;;;1703175;82;20976;-81
2022/10/08 13:23:26;;;;;;;18.50;5.97;;;;;;;;;;1711123;83;21028;-82
2022/10/08 13:25:53;;;;;;;18.82;4.85;;;;;;;;;;1694354;83;21029;-81
2022/10/08 13:28:22;;;;;;;5.33;3.50;;;;;;;;;;1706823;83;21488;-82
2022/10/08 13:30:49;;;;;;;7.55;3.92;;;;;;;;;;1708392;83;21033;-81
2022/10/08 13:33:19;;;;;;;9.55;4.80;;;;;;;;;;1700945;83;21790;-81
2022/10/08 13:35:51;;;;;;;7.75;3.75;;;;;;;;;;1703245;82;21055;-81
2022/10/08 13:38:19;;;;;;;8.03;3.33;;;;;;;;;;1704943;83;21507;-81
2022/10/08 13:40:50;;;;;;;9.58;4.05;;;;;;;;;;1710855;83;21008;-81
2022/10/08 13:43:16;;;;;;;16.65;3.83;;;;;;;;;;1703390;83;21048;-80
2022/10/08 13:45:42;;;;;;;16.45;4.25;;;;;;;;;;1717003;82;21621;-80
2022/10/08 13:48:09;;;;;;;21.75;4.90;;;;;;;;;;1728026;82;21066;-80
2022/10/08 13:50:35;;;;;;;14.85;3.15;;;;;;;;;;1727749;81;21017;-81
2022/10/08 13:53:01;;;;;;;10.08;3.85;;;;;;;;;;1728950;82;20998;-81
2022/10/08 13:55:31;;;;;;;7.83;3.92;;;;;;;;;;1728247;82;21064;-82
2022/10/08 13:58:00;;;;;;;6.03;3.85;;;;;;;;;;1720363;82;21586;-82
2022/10/08 14:00:27;;;;;;;9.98;4.70;;;;;;;;;;1728163;82;20996;-81
2022/10/08 14:02:54;;;;;;;9.30;4.83;;;;;;;;;;1726460;81;21059;-80
2022/10/08 14:05:21;;;;;;;11.68;6.12;;;;;;;;;;1730083;82;20982;-79
2022/10/08 14:07:50;;;;;;;4.60;2.90;;;;;;;;;;1725287;82;21029;-82
2022/10/08 14:10:17;;;;;;;6.65;2.80;;;;;;;;;;1729552;82;20994;-80
2022/10/08 14:12:43;;;;;;;4.22;2.67;;;;;;;;;;1729415;81;21508;-79
2022/10/08 14:15:11;;;;;;;7.30;2.85;;;;;;;;;;1734869;82;21005;-79
2022/10/08 14:17:38;;;;;;;4.20;2.67;;;;;;;;;;1729944;82;21730;-80
2022/10/08 14:20:06;;;;;;;7.33;2.77;;;;;;;;;;1728252;82;21121;-80
2022/10/08 14:22:37;;;;;;;6.20;2.83;;;;;;;;;;1730399;82;21472;-80
2022/10/08 14:24:59;;;;;;;5.45;2.30;;;;;;;;;;1729813;81;21078;-80
2022/10/08 14:27:25;;;;;;;8.73;3.08;;;;;;;;;;1725743;81;21508;-80
2022/10/08 14:29:52;;;;;;;15.65;8.28;;;;;;;;;;1724056;82;20986;-80
2022/10/08 14:32:19;;;;;;;21.70;12.65;;;;;;;;;;1726133;82;21094;-80
2022/10/08 14:34:45;;;;;;;43.73;13.30;;;;;;;;;;1722845;81;21526;-80
2022/10/08 14:37:10;;;;;;;16.20;7.72;;;;;;;;;;1727387;82;20958;-79
2022/10/08 14:39:38;;;;;;;6.87;4.20;;;;;;;;;;1723417;82;21043;-79
2022/10/08 14:42:05;;;;;;;7.85;3.62;;;;;;;;;;1725655;82;21689;-80
2022/10/08 14:44:32;;;;;;;5.65;3.60;;;;;;;;;;1725785;82;21033;-80
2022/10/08 14:46:58;;;;;;;7.87;3.00;;;;;;;;;;1721205;82;21077;-81
2022/10/08 14:49:24;;;;;;;4.62;2.80;;;;;;;;;;1721173;82;21006;-80
2022/10/08 14:51:51;;;;;;;3.72;2.40;;;;;;;;;;1720229;81;21022;-79
2022/10/08 14:54:17;;;;;;;5.78;2.70;;;;;;;;;;1701065;84;21033;-73